Time;durP1;ratioP1;P1;durP2;ratioP2;P2;SDS_P1;SDS_P2;PMS_P1;PMS_P2;Temp;Humidity;BMP_temperature;BMP_pressure;BME280_temperature;BME280_humidity;BME280_pressure;Samples;Min_cycle;Max_cycle;Signal;HPM_P1;HPM_P2
2022/10/09 00:01:39;;;;;;;13.05;10.02;;;;;;;;;;5136320;27;20038;-71
2022/10/09 00:04:24;;;;;;;12.02;9.48;;;;;;;;;;5138087;27;20106;-71
2022/10/09 00:07:10;;;;;;;15.13;10.52;;;;;;;;;;5136446;27;20031;-71
2022/10/09 00:09:55;;;;;;;14.63;9.75;;;;;;;;;;5123992;27;20058;-71
2022/10/09 00:12:41;;;;;;;14.00;10.07;;;;;;;;;;5136323;27;20019;-70
2022/10/09 00:15:27;;;;;;;12.00;8.75;;;;;;;;;;5136347;27;20051;-72
2022/10/09 00:18:13;;;;;;;14.00;10.00;;;;;;;;;;5123245;27;20027;-70
2022/10/09 00:20:59;;;;;;;13.20;9.85;;;;;;;;;;5137212;27;20458;-71
2022/10/09 00:23:44;;;;;;;11.60;8.98;;;;;;;;;;5137258;27;20019;-72
2022/10/09 00:26:30;;;;;;;14.73;9.77;;;;;;;;;;5122999;27;20018;-71
2022/10/09 00:29:16;;;;;;;12.48;9.68;;;;;;;;;;5137515;27;20100;-70
2022/10/09 00:32:01;;;;;;;14.95;9.18;;;;;;;;;;5137768;27;20070;-71
2022/10/09 00:34:47;;;;;;;13.60;9.85;;;;;;;;;;5137201;27;20015;-71
2022/10/09 00:37:32;;;;;;;14.07;10.38;;;;;;;;;;5135720;27;20055;-71
2022/10/09 00:40:18;;;;;;;14.38;10.00;;;;;;;;;;5136801;27;20059;-72
2022/10/09 00:43:09;;;;;;;13.38;10.27;;;;;;;;;;5135932;27;20026;-71
2022/10/09 00:45:55;;;;;;;12.70;10.07;;;;;;;;;;5136057;27;20015;-71
2022/10/09 00:48:41;;;;;;;11.65;9.20;;;;;;;;;;5136458;27;20042;-71
2022/10/09 00:51:27;;;;;;;13.27;9.80;;;;;;;;;;5121775;27;20329;-71
2022/10/09 00:54:14;;;;;;;11.68;9.23;;;;;;;;;;5136354;27;20042;-71
2022/10/09 00:57:00;;;;;;;12.68;9.35;;;;;;;;;;5136100;27;20023;-71
2022/10/09 00:59:45;;;;;;;13.52;9.70;;;;;;;;;;5121619;27;20034;-71
2022/10/09 01:02:31;;;;;;;12.23;8.98;;;;;;;;;;5137473;27;20512;-71
2022/10/09 01:05:17;;;;;;;12.40;9.10;;;;;;;;;;5136722;27;20018;-71
2022/10/09 01:08:05;;;;;;;12.52;9.52;;;;;;;;;;5136046;27;20058;-72
2022/10/09 01:11:00;;;;;;;14.38;9.32;;;;;;;;;;5135195;27;20026;-71
2022/10/09 01:13:51;;;;;;;14.85;9.75;;;;;;;;;;5134999;27;20156;-71
2022/10/09 01:16:41;;;;;;;13.68;10.40;;;;;;;;;;5135591;27;20018;-72
2022/10/09 01:19:33;;;;;;;13.80;10.25;;;;;;;;;;5136323;27;20011;-72
2022/10/09 01:22:37;;;;;;;12.98;9.75;;;;;;;;;;5134714;27;20330;-72
2022/10/09 01:25:27;;;;;;;12.85;10.00;;;;;;;;;;5120604;27;20172;-72
2022/10/09 01:28:14;;;;;;;15.32;9.98;;;;;;;;;;5136575;27;20023;-71
2022/10/09 01:31:01;;;;;;;12.32;10.05;;;;;;;;;;5120720;27;20440;-71
2022/10/09 01:33:47;;;;;;;15.00;10.65;;;;;;;;;;5135865;27;20034;-71
2022/10/09 01:36:34;;;;;;;15.90;11.70;;;;;;;;;;5135927;27;20019;-72
2022/10/09 01:39:21;;;;;;;16.10;11.13;;;;;;;;;;5134597;27;20106;-71
2022/10/09 01:42:07;;;;;;;17.33;10.90;;;;;;;;;;5135895;27;20033;-71
2022/10/09 01:44:52;;;;;;;14.38;10.57;;;;;;;;;;5135018;27;20345;-72
2022/10/09 01:47:38;;;;;;;14.63;11.13;;;;;;;;;;5136071;27;20063;-71
2022/10/09 01:50:26;;;;;;;14.50;10.60;;;;;;;;;;5136492;27;20030;-71
2022/10/09 01:53:14;;;;;;;14.70;9.95;;;;;;;;;;5120021;27;20453;-72
2022/10/09 01:56:12;;;;;;;13.63;10.80;;;;;;;;;;5135215;27;20058;-71
2022/10/09 01:58:59;;;;;;;13.88;10.10;;;;;;;;;;5135001;27;20022;-71
2022/10/09 02:01:46;;;;;;;13.30;10.15;;;;;;;;;;5135730;27;20019;-71
2022/10/09 02:04:31;;;;;;;15.75;11.48;;;;;;;;;;5135066;27;20076;-70
2022/10/09 02:07:17;;;;;;;14.48;10.70;;;;;;;;;;5135062;27;20118;-71
2022/10/09 02:10:04;;;;;;;15.30;11.25;;;;;;;;;;5134294;27;20030;-71
2022/10/09 02:12:54;;;;;;;12.88;10.85;;;;;;;;;;5135499;27;20060;-71
2022/10/09 02:15:48;;;;;;;15.75;10.70;;;;;;;;;;5135528;27;20023;-70
2022/10/09 02:18:39;;;;;;;13.95;10.88;;;;;;;;;;5135490;27;20139;-72
2022/10/09 02:21:27;;;;;;;15.63;11.43;;;;;;;;;;5135063;27;20011;-71
2022/10/09 02:24:16;;;;;;;14.00;10.43;;;;;;;;;;5135109;27;20106;-71
2022/10/09 02:27:02;;;;;;;14.68;10.93;;;;;;;;;;5134539;27;20019;-71
2022/10/09 02:29:48;;;;;;;14.88;10.45;;;;;;;;;;5119983;27;20019;-71
2022/10/09 02:32:34;;;;;;;14.80;11.15;;;;;;;;;;5120245;27;20047;-71
2022/10/09 02:35:20;;;;;;;12.98;10.43;;;;;;;;;;5133918;28;20058;-71
2022/10/09 02:38:05;;;;;;;13.02;10.00;;;;;;;;;;5134365;28;20023;-71
2022/10/09 02:40:51;;;;;;;14.98;10.88;;;;;;;;;;5119994;28;20015;-71
2022/10/09 02:43:36;;;;;;;14.02;10.20;;;;;;;;;;5133415;28;20444;-71
2022/10/09 02:46:22;;;;;;;13.90;10.43;;;;;;;;;;5134076;28;20031;-72
2022/10/09 02:49:07;;;;;;;17.92;10.68;;;;;;;;;;5118952;27;20436;-71
2022/10/09 02:51:53;;;;;;;13.90;10.48;;;;;;;;;;5137716;27;20027;-71
2022/10/09 02:54:39;;;;;;;13.48;10.35;;;;;;;;;;5137401;27;20039;-71
2022/10/09 02:57:24;;;;;;;13.02;10.35;;;;;;;;;;5124025;27;20444;-71
2022/10/09 03:00:10;;;;;;;14.13;10.80;;;;;;;;;;5124201;27;20428;-71
2022/10/09 03:02:56;;;;;;;15.38;10.82;;;;;;;;;;5138626;27;20019;-71
2022/10/09 03:05:41;;;;;;;12.52;9.80;;;;;;;;;;5138064;27;20023;-71
2022/10/09 03:08:27;;;;;;;15.38;10.38;;;;;;;;;;5139443;27;20102;-71
2022/10/09 03:11:14;;;;;;;15.35;10.40;;;;;;;;;;5139293;27;20015;-72
2022/10/09 03:13:59;;;;;;;13.93;11.05;;;;;;;;;;5137714;27;20030;-71
2022/10/09 03:16:45;;;;;;;15.90;10.73;;;;;;;;;;5139459;27;20057;-71
2022/10/09 03:19:30;;;;;;;13.85;10.02;;;;;;;;;;5137234;27;20027;-71
2022/10/09 03:22:16;;;;;;;16.58;10.85;;;;;;;;;;5137609;27;20094;-70
2022/10/09 03:25:01;;;;;;;13.88;10.52;;;;;;;;;;5139100;27;20429;-71
2022/10/09 03:27:47;;;;;;;14.40;11.32;;;;;;;;;;5137933;27;20019;-71
2022/10/09 03:30:32;;;;;;;13.45;10.57;;;;;;;;;;5136984;27;20405;-71
2022/10/09 03:33:18;;;;;;;17.63;11.93;;;;;;;;;;5137486;27;20019;-71
2022/10/09 03:36:04;;;;;;;17.05;11.90;;;;;;;;;;5137492;27;20016;-72
2022/10/09 03:38:50;;;;;;;14.68;12.00;;;;;;;;;;5138580;27;20019;-72
2022/10/09 03:41:35;;;;;;;14.90;10.50;;;;;;;;;;5139012;27;20497;-71
2022/10/09 03:44:21;;;;;;;13.40;10.65;;;;;;;;;;5138552;27;20027;-72
2022/10/09 03:47:06;;;;;;;14.07;11.35;;;;;;;;;;5136881;27;20084;-71
2022/10/09 03:49:52;;;;;;;16.13;11.95;;;;;;;;;;5136648;27;20031;-71
2022/10/09 03:52:39;;;;;;;16.45;11.20;;;;;;;;;;5137262;27;20015;-71
2022/10/09 03:55:24;;;;;;;16.30;12.30;;;;;;;;;;5135456;27;20051;-72
2022/10/09 03:58:10;;;;;;;15.30;11.45;;;;;;;;;;5135640;28;20047;-71
2022/10/09 04:00:55;;;;;;;15.48;12.38;;;;;;;;;;5136747;27;20352;-72
2022/10/09 04:03:41;;;;;;;15.18;11.10;;;;;;;;;;5135331;28;20110;-72
2022/10/09 04:06:26;;;;;;;15.50;11.35;;;;;;;;;;5136779;28;20019;-71
2022/10/09 04:09:12;;;;;;;15.07;11.68;;;;;;;;;;5137230;28;20441;-72
2022/10/09 04:11:57;;;;;;;15.68;11.88;;;;;;;;;;5136681;28;20440;-72
2022/10/09 04:14:43;;;;;;;17.70;11.30;;;;;;;;;;5136036;28;20023;-70
2022/10/09 04:17:29;;;;;;;14.85;11.23;;;;;;;;;;5136966;28;20080;-71
2022/10/09 04:20:14;;;;;;;15.82;10.77;;;;;;;;;;5121469;28;20007;-70
2022/10/09 04:23:00;;;;;;;15.43;11.18;;;;;;;;;;5135880;28;20360;-70
2022/10/09 04:25:45;;;;;;;15.82;11.07;;;;;;;;;;5136961;28;20360;-70
2022/10/09 04:28:31;;;;;;;16.65;10.85;;;;;;;;;;5137068;28;20023;-71
2022/10/09 04:31:17;;;;;;;15.75;11.05;;;;;;;;;;5135972;28;20037;-73
2022/10/09 04:34:02;;;;;;;14.40;10.75;;;;;;;;;;5134914;28;20023;-72
2022/10/09 04:36:48;;;;;;;14.93;11.65;;;;;;;;;;5134847;28;20441;-72
2022/10/09 04:39:33;;;;;;;16.02;11.52;;;;;;;;;;5136517;28;20034;-73
2022/10/09 04:42:19;;;;;;;14.27;11.23;;;;;;;;;;5135372;28;20011;-72
2022/10/09 04:45:05;;;;;;;17.05;11.70;;;;;;;;;;5136136;28;20400;-72
2022/10/09 04:47:50;;;;;;;15.55;11.15;;;;;;;;;;5135964;28;20037;-72
2022/10/09 04:50:39;;;;;;;18.42;11.60;;;;;;;;;;5136638;28;20336;-72
2022/10/09 04:55:48;;;;;;;14.63;10.45;;;;;;;;;;5092466;28;20891;-72
2022/10/09 04:58:35;;;;;;;13.15;10.65;;;;;;;;;;5091743;28;20032;-72
2022/10/09 05:01:22;;;;;;;16.13;11.48;;;;;;;;;;5110281;28;20072;-73
2022/10/09 05:04:07;;;;;;;17.23;12.27;;;;;;;;;;5120658;28;20024;-72
2022/10/09 05:06:53;;;;;;;14.85;11.68;;;;;;;;;;5132270;28;20341;-72
2022/10/09 05:09:38;;;;;;;15.32;11.85;;;;;;;;;;5118133;28;20324;-72
2022/10/09 05:12:24;;;;;;;21.38;14.43;;;;;;;;;;5132016;28;20055;-72
2022/10/09 05:15:10;;;;;;;15.82;12.05;;;;;;;;;;5132680;28;20012;-72
2022/10/09 05:17:55;;;;;;;15.00;11.93;;;;;;;;;;5131736;28;20030;-71
2022/10/09 05:20:41;;;;;;;16.90;12.60;;;;;;;;;;5132434;28;20336;-72
2022/10/09 05:23:26;;;;;;;15.98;12.35;;;;;;;;;;5132155;28;20016;-72
2022/10/09 05:26:13;;;;;;;17.65;12.32;;;;;;;;;;5131846;28;20019;-72
2022/10/09 05:28:59;;;;;;;19.30;12.70;;;;;;;;;;5132300;28;20451;-72
2022/10/09 05:31:45;;;;;;;16.58;12.60;;;;;;;;;;5131871;28;20034;-73
2022/10/09 05:34:32;;;;;;;18.00;13.90;;;;;;;;;;5131694;28;20337;-72
2022/10/09 05:37:17;;;;;;;18.42;13.40;;;;;;;;;;5131880;28;20030;-72
2022/10/09 05:40:03;;;;;;;20.25;13.07;;;;;;;;;;5132055;28;20030;-72
2022/10/09 05:42:49;;;;;;;19.42;12.95;;;;;;;;;;5130860;28;20007;-72
2022/10/09 05:45:35;;;;;;;19.20;14.13;;;;;;;;;;5132489;27;20038;-72
2022/10/09 05:48:20;;;;;;;21.08;13.45;;;;;;;;;;5131796;28;20027;-72
2022/10/09 05:51:14;;;;;;;18.48;13.82;;;;;;;;;;5131026;28;20076;-72
2022/10/09 05:54:02;;;;;;;19.23;12.88;;;;;;;;;;5130229;28;20071;-72
2022/10/09 05:56:48;;;;;;;20.48;14.43;;;;;;;;;;5131706;28;20024;-72
2022/10/09 05:59:33;;;;;;;19.15;14.13;;;;;;;;;;5132335;28;20023;-72
2022/10/09 06:02:19;;;;;;;17.92;14.23;;;;;;;;;;5131231;28;20027;-73
2022/10/09 06:05:05;;;;;;;18.38;13.27;;;;;;;;;;5128984;28;20564;-71
2022/10/09 06:07:51;;;;;;;18.95;14.50;;;;;;;;;;5117358;28;20462;-72
2022/10/09 06:10:36;;;;;;;18.73;13.35;;;;;;;;;;5117196;28;20019;-73
2022/10/09 06:13:22;;;;;;;18.20;14.00;;;;;;;;;;5117360;28;20024;-72
2022/10/09 06:16:12;;;;;;;16.58;13.30;;;;;;;;;;5117128;28;20030;-73
2022/10/09 06:18:57;;;;;;;18.98;13.00;;;;;;;;;;5111756;28;20432;-73
2022/10/09 06:21:44;;;;;;;19.65;13.20;;;;;;;;;;5117469;28;20023;-72
2022/10/09 06:24:29;;;;;;;16.20;12.75;;;;;;;;;;5117419;28;20028;-75
2022/10/09 06:27:15;;;;;;;17.02;12.32;;;;;;;;;;5116534;28;20062;-72
2022/10/09 06:30:00;;;;;;;17.80;12.82;;;;;;;;;;5116302;28;20019;-73
2022/10/09 06:32:46;;;;;;;19.10;12.65;;;;;;;;;;5116753;28;20035;-74
2022/10/09 06:35:35;;;;;;;16.65;12.70;;;;;;;;;;5115959;28;20443;-73
2022/10/09 06:38:20;;;;;;;16.83;13.05;;;;;;;;;;5117515;28;20020;-72
2022/10/09 06:41:07;;;;;;;18.75;13.73;;;;;;;;;;5116746;28;20012;-73
2022/10/09 06:43:57;;;;;;;20.33;13.57;;;;;;;;;;5114907;28;20027;-73
2022/10/09 06:46:43;;;;;;;20.83;14.60;;;;;;;;;;5117087;28;20034;-74
2022/10/09 06:49:30;;;;;;;19.55;13.35;;;;;;;;;;5118025;28;20025;-74
2022/10/09 06:52:18;;;;;;;18.85;13.27;;;;;;;;;;5121534;28;20114;-75
2022/10/09 06:55:04;;;;;;;20.20;14.13;;;;;;;;;;5117608;28;20126;-75
2022/10/09 06:57:49;;;;;;;18.70;14.10;;;;;;;;;;5116028;28;20030;-74
2022/10/09 07:00:35;;;;;;;18.88;14.70;;;;;;;;;;5114173;28;20031;-74
2022/10/09 07:03:20;;;;;;;22.08;15.52;;;;;;;;;;5115494;28;20106;-75
2022/10/09 07:06:09;;;;;;;18.20;14.45;;;;;;;;;;5116365;28;20019;-74
2022/10/09 07:08:59;;;;;;;18.85;14.15;;;;;;;;;;5116041;28;20016;-76
2022/10/09 07:11:46;;;;;;;17.02;14.13;;;;;;;;;;5116131;28;20015;-76
2022/10/09 07:14:32;;;;;;;18.30;13.68;;;;;;;;;;5119968;28;20512;-74
2022/10/09 07:17:17;;;;;;;20.85;14.45;;;;;;;;;;5129389;28;20030;-74
2022/10/09 07:20:03;;;;;;;18.38;14.18;;;;;;;;;;5120807;28;20012;-76
2022/10/09 07:22:48;;;;;;;17.83;13.25;;;;;;;;;;5115861;28;20068;-75
2022/10/09 07:25:37;;;;;;;18.23;12.40;;;;;;;;;;5116087;28;20026;-76
2022/10/09 07:28:23;;;;;;;20.02;13.43;;;;;;;;;;5116136;28;20058;-75
2022/10/09 07:31:09;;;;;;;18.02;13.88;;;;;;;;;;5115799;28;20023;-75
2022/10/09 07:33:55;;;;;;;19.45;12.85;;;;;;;;;;5115424;28;20023;-75
2022/10/09 07:36:41;;;;;;;16.92;11.88;;;;;;;;;;5115847;28;20016;-77
2022/10/09 07:39:27;;;;;;;14.88;11.60;;;;;;;;;;5117422;28;20099;-77
2022/10/09 07:42:12;;;;;;;17.45;11.40;;;;;;;;;;5115055;28;20085;-74
2022/10/09 07:44:58;;;;;;;16.92;12.10;;;;;;;;;;5116044;28;20034;-74
2022/10/09 07:47:43;;;;;;;18.60;12.82;;;;;;;;;;5116490;28;20034;-75
2022/10/09 07:50:29;;;;;;;15.85;12.30;;;;;;;;;;5116567;28;20081;-76
2022/10/09 07:53:14;;;;;;;19.98;11.68;;;;;;;;;;5116225;28;20023;-75
2022/10/09 07:56:00;;;;;;;14.77;11.55;;;;;;;;;;5094602;28;20429;-76
2022/10/09 07:58:49;;;;;;;16.33;12.60;;;;;;;;;;5098171;28;20020;-75
2022/10/09 08:01:35;;;;;;;13.85;11.18;;;;;;;;;;5095208;28;20028;-75
2022/10/09 08:04:20;;;;;;;18.55;11.88;;;;;;;;;;5095385;28;20031;-76
2022/10/09 08:07:06;;;;;;;14.65;11.55;;;;;;;;;;5094848;28;20016;-76
2022/10/09 08:09:52;;;;;;;16.05;11.65;;;;;;;;;;5096047;28;20012;-76
2022/10/09 08:12:37;;;;;;;16.13;12.07;;;;;;;;;;5095322;28;20063;-75
2022/10/09 08:15:23;;;;;;;18.42;11.52;;;;;;;;;;5094354;28;20023;-76
2022/10/09 08:18:09;;;;;;;14.02;11.43;;;;;;;;;;5094501;28;20008;-75
2022/10/09 08:20:56;;;;;;;14.98;11.20;;;;;;;;;;5095305;28;20031;-76
2022/10/09 08:23:42;;;;;;;14.18;10.52;;;;;;;;;;5096133;28;20059;-76
2022/10/09 08:26:29;;;;;;;17.60;11.52;;;;;;;;;;5094725;28;20024;-77
2022/10/09 08:29:15;;;;;;;13.48;10.57;;;;;;;;;;5095113;28;20032;-77
2022/10/09 08:32:00;;;;;;;16.50;10.30;;;;;;;;;;5093138;28;20112;-73
2022/10/09 08:34:46;;;;;;;16.70;10.27;;;;;;;;;;5093435;28;20498;-74
2022/10/09 08:37:32;;;;;;;15.57;10.43;;;;;;;;;;5094534;28;20508;-76
2022/10/09 08:40:21;;;;;;;15.27;10.35;;;;;;;;;;5093477;28;20024;-75
2022/10/09 08:43:09;;;;;;;14.25;9.50;;;;;;;;;;5093752;28;20024;-74
2022/10/09 08:45:57;;;;;;;13.90;9.65;;;;;;;;;;5093803;28;20452;-76
2022/10/09 08:48:44;;;;;;;16.27;9.73;;;;;;;;;;5093822;28;20039;-75
2022/10/09 08:51:34;;;;;;;15.45;10.30;;;;;;;;;;5094409;28;20109;-76
2022/10/09 08:54:48;;;;;;;13.05;9.63;;;;;;;;;;5111704;28;20124;-75
2022/10/09 08:57:34;;;;;;;11.88;9.85;;;;;;;;;;5113103;28;20023;-76
2022/10/09 09:00:21;;;;;;;13.75;8.65;;;;;;;;;;5133523;28;20358;-76
2022/10/09 09:03:25;;;;;;;11.70;9.68;;;;;;;;;;5119241;28;20045;-73
2022/10/09 09:06:40;;;;;;;14.68;9.68;;;;;;;;;;5133515;28;20030;-76
2022/10/09 09:09:26;;;;;;;12.23;9.13;;;;;;;;;;5045751;28;20027;-73
2022/10/09 09:12:19;;;;;;;13.40;9.88;;;;;;;;;;5133976;28;20050;-73
2022/10/09 09:15:20;;;;;;;14.90;9.60;;;;;;;;;;5133153;28;20028;-74
2022/10/09 09:18:34;;;;;;;11.50;9.30;;;;;;;;;;5134590;28;20084;-74
2022/10/09 09:21:31;;;;;;;11.82;8.65;;;;;;;;;;5058812;28;20130;-75
2022/10/09 09:24:18;;;;;;;12.55;9.05;;;;;;;;;;5133776;28;20106;-74
2022/10/09 09:27:10;;;;;;;14.23;9.32;;;;;;;;;;5119205;28;20030;-72
2022/10/09 09:29:58;;;;;;;13.82;8.93;;;;;;;;;;5134377;28;20015;-75
2022/10/09 09:32:51;;;;;;;11.98;8.93;;;;;;;;;;5133865;28;20016;-76
2022/10/09 09:35:45;;;;;;;13.73;8.88;;;;;;;;;;5118977;28;20031;-74
2022/10/09 09:38:31;;;;;;;10.73;8.35;;;;;;;;;;5120000;28;20019;-75
2022/10/09 09:41:17;;;;;;;11.75;8.35;;;;;;;;;;5135474;27;20029;-76
2022/10/09 09:44:03;;;;;;;9.90;7.68;;;;;;;;;;5138614;27;20148;-75
2022/10/09 09:46:49;;;;;;;11.25;7.85;;;;;;;;;;5138681;27;20424;-76
2022/10/09 09:49:35;;;;;;;10.45;7.72;;;;;;;;;;5137938;27;20055;-76
2022/10/09 09:52:21;;;;;;;11.00;7.57;;;;;;;;;;5138977;27;20015;-75
2022/10/09 09:55:21;;;;;;;9.25;6.93;;;;;;;;;;5137588;27;20367;-75
2022/10/09 09:58:07;;;;;;;8.60;6.50;;;;;;;;;;5123819;27;20037;-77
2022/10/09 10:00:57;;;;;;;11.13;7.13;;;;;;;;;;5137854;27;20019;-75
2022/10/09 10:03:46;;;;;;;10.07;6.75;;;;;;;;;;5137725;27;20044;-76
2022/10/09 10:06:34;;;;;;;9.85;6.50;;;;;;;;;;5137742;27;20034;-75
2022/10/09 10:09:19;;;;;;;11.88;7.00;;;;;;;;;;5138007;27;20033;-76
2022/10/09 10:12:05;;;;;;;12.07;7.00;;;;;;;;;;5123890;27;20336;-76
2022/10/09 10:14:51;;;;;;;14.95;7.38;;;;;;;;;;5137321;27;20415;-76
2022/10/09 10:17:36;;;;;;;15.38;7.00;;;;;;;;;;5137302;27;20019;-75
2022/10/09 10:20:22;;;;;;;9.57;6.60;;;;;;;;;;5137503;27;20015;-76
2022/10/09 10:23:22;;;;;;;13.68;6.75;;;;;;;;;;5137539;27;20027;-76
2022/10/09 10:26:26;;;;;;;10.10;7.50;;;;;;;;;;5137100;27;20064;-75
2022/10/09 10:29:17;;;;;;;13.73;7.47;;;;;;;;;;5122961;27;20046;-76
2022/10/09 10:32:03;;;;;;;10.75;7.07;;;;;;;;;;5137486;27;20023;-75
2022/10/09 10:34:58;;;;;;;9.25;7.55;;;;;;;;;;5124551;27;20048;-75
2022/10/09 10:38:19;;;;;;;10.23;7.15;;;;;;;;;;5137113;27;20019;-76
2022/10/09 10:41:05;;;;;;;9.05;6.90;;;;;;;;;;5035374;28;20372;-76
2022/10/09 10:43:55;;;;;;;15.88;7.40;;;;;;;;;;5136371;27;20122;-77
2022/10/09 10:46:47;;;;;;;10.45;7.70;;;;;;;;;;5137316;27;20046;-76
2022/10/09 10:49:33;;;;;;;9.43;7.03;;;;;;;;;;5137127;27;20447;-78
2022/10/09 10:52:18;;;;;;;10.43;7.00;;;;;;;;;;5124671;27;20023;-76
2022/10/09 10:55:25;;;;;;;10.50;6.75;;;;;;;;;;5136258;27;20051;-77
2022/10/09 10:58:17;;;;;;;9.40;6.97;;;;;;;;;;5122254;27;20042;-79
2022/10/09 11:01:03;;;;;;;8.73;6.75;;;;;;;;;;5122065;27;20027;-76
2022/10/09 11:03:57;;;;;;;8.32;7.05;;;;;;;;;;5136869;27;20030;-78
2022/10/09 11:06:52;;;;;;;10.90;6.72;;;;;;;;;;5122559;27;20439;-79
2022/10/09 11:09:42;;;;;;;9.20;7.25;;;;;;;;;;5136866;27;20027;-77
2022/10/09 11:12:42;;;;;;;12.48;6.35;;;;;;;;;;5136457;27;20099;-77
2022/10/09 11:15:30;;;;;;;13.55;7.25;;;;;;;;;;5136015;27;20033;-76
2022/10/09 11:18:24;;;;;;;26.65;17.50;;;;;;;;;;5122372;27;20019;-77
2022/10/09 11:21:13;;;;;;;10.77;7.57;;;;;;;;;;5121096;27;20106;-76
2022/10/09 11:24:04;;;;;;;9.38;7.18;;;;;;;;;;5122554;27;20031;-75
2022/10/09 11:27:01;;;;;;;9.23;7.18;;;;;;;;;;5136115;27;20019;-77
2022/10/09 11:29:59;;;;;;;9.35;6.90;;;;;;;;;;5120529;27;20019;-77
2022/10/09 11:33:11;;;;;;;10.57;7.43;;;;;;;;;;5122429;27;20047;-78
2022/10/09 11:35:59;;;;;;;14.15;7.30;;;;;;;;;;5135742;27;20350;-75
2022/10/09 11:38:49;;;;;;;9.95;7.13;;;;;;;;;;5135653;27;20015;-76
2022/10/09 11:41:35;;;;;;;9.18;7.07;;;;;;;;;;5135354;27;20102;-76
2022/10/09 11:44:36;;;;;;;11.10;7.65;;;;;;;;;;5121012;27;20102;-76
2022/10/09 11:47:31;;;;;;;9.68;7.18;;;;;;;;;;5135973;27;20051;-77
2022/10/09 11:50:35;;;;;;;11.63;6.90;;;;;;;;;;5134761;27;20030;-77
2022/10/09 11:53:23;;;;;;;9.90;7.53;;;;;;;;;;5134598;27;20050;-75
2022/10/09 11:56:22;;;;;;;9.63;6.80;;;;;;;;;;5134471;27;20054;-75
2022/10/09 11:59:19;;;;;;;10.43;6.80;;;;;;;;;;5134945;27;20019;-76
2022/10/09 12:02:23;;;;;;;11.93;7.20;;;;;;;;;;5136180;27;20031;-75
2022/10/09 12:05:16;;;;;;;26.90;7.70;;;;;;;;;;5134710;27;20431;-75
2022/10/09 12:08:13;;;;;;;12.88;7.28;;;;;;;;;;5133998;27;20054;-75
2022/10/09 12:11:12;;;;;;;8.55;6.57;;;;;;;;;;5134387;27;20046;-75
2022/10/09 12:13:59;;;;;;;8.85;7.03;;;;;;;;;;5134689;27;20023;-75
2022/10/09 12:16:45;;;;;;;12.23;7.13;;;;;;;;;;5134905;27;20057;-74
2022/10/09 12:19:35;;;;;;;8.70;6.65;;;;;;;;;;5135044;27;20075;-75
2022/10/09 12:22:21;;;;;;;10.25;6.70;;;;;;;;;;5134582;27;20451;-74
2022/10/09 12:25:16;;;;;;;9.93;7.22;;;;;;;;;;5134222;27;20031;-75
2022/10/09 12:28:01;;;;;;;10.90;6.88;;;;;;;;;;5135041;27;20016;-76
2022/10/09 12:30:47;;;;;;;11.43;7.40;;;;;;;;;;5134604;27;20439;-76
2022/10/09 12:33:39;;;;;;;10.23;6.70;;;;;;;;;;5119683;27;20029;-75
2022/10/09 12:36:26;;;;;;;9.45;6.72;;;;;;;;;;5134061;27;20061;-76
2022/10/09 12:39:13;;;;;;;9.95;7.07;;;;;;;;;;5119097;27;20019;-75
2022/10/09 12:41:58;;;;;;;9.05;6.80;;;;;;;;;;5133878;27;20045;-76
2022/10/09 12:44:44;;;;;;;11.18;7.10;;;;;;;;;;5136233;27;20034;-74
2022/10/09 12:47:33;;;;;;;11.48;6.38;;;;;;;;;;5134656;27;20045;-75
2022/10/09 12:50:22;;;;;;;14.15;6.68;;;;;;;;;;5134211;27;20132;-75
2022/10/09 12:53:12;;;;;;;8.35;6.63;;;;;;;;;;5119018;28;20024;-75
2022/10/09 12:55:59;;;;;;;8.82;6.88;;;;;;;;;;5133607;28;20047;-75
2022/10/09 12:58:45;;;;;;;10.23;7.18;;;;;;;;;;5134152;28;20042;-74
2022/10/09 13:01:31;;;;;;;9.48;7.00;;;;;;;;;;5134478;28;20156;-75
2022/10/09 13:04:25;;;;;;;9.52;7.18;;;;;;;;;;5133805;28;20034;-75
2022/10/09 13:07:18;;;;;;;12.88;7.45;;;;;;;;;;5146978;28;20015;-74
2022/10/09 13:10:06;;;;;;;9.50;6.75;;;;;;;;;;5135982;28;20035;-74
2022/10/09 13:12:53;;;;;;;10.27;7.10;;;;;;;;;;5133958;28;20343;-75
2022/10/09 13:15:38;;;;;;;8.73;6.63;;;;;;;;;;5134773;27;20106;-75
2022/10/09 13:18:24;;;;;;;9.13;7.15;;;;;;;;;;5137785;27;20041;-76
2022/10/09 13:21:16;;;;;;;10.73;7.43;;;;;;;;;;5138475;27;20084;-75
2022/10/09 13:24:09;;;;;;;11.95;7.32;;;;;;;;;;5138012;27;20099;-75
2022/10/09 13:26:54;;;;;;;10.52;6.95;;;;;;;;;;5148101;27;20023;-77
2022/10/09 13:29:41;;;;;;;9.57;7.32;;;;;;;;;;5146397;27;20438;-75
2022/10/09 13:32:27;;;;;;;9.07;7.25;;;;;;;;;;5137941;27;20069;-76
2022/10/09 13:35:12;;;;;;;18.77;8.02;;;;;;;;;;5137938;27;20015;-76
2022/10/09 13:37:58;;;;;;;9.65;7.50;;;;;;;;;;5138278;27;20023;-76
2022/10/09 13:40:43;;;;;;;9.15;7.47;;;;;;;;;;5123028;27;20016;-76
2022/10/09 13:43:30;;;;;;;11.98;7.35;;;;;;;;;;5123501;27;20023;-76
2022/10/09 13:46:15;;;;;;;8.88;7.57;;;;;;;;;;5137158;27;20023;-76
2022/10/09 13:49:01;;;;;;;9.68;7.20;;;;;;;;;;5137761;27;20107;-77
2022/10/09 13:51:46;;;;;;;9.30;7.00;;;;;;;;;;5122936;27;20015;-76
2022/10/09 13:54:32;;;;;;;10.52;7.13;;;;;;;;;;5137556;27;20054;-76
2022/10/09 13:57:18;;;;;;;10.05;6.97;;;;;;;;;;5136595;27;20015;-75
2022/10/09 14:00:04;;;;;;;8.27;6.75;;;;;;;;;;5137776;27;20045;-75
2022/10/09 14:02:49;;;;;;;7.20;6.35;;;;;;;;;;5136857;27;20061;-76
2022/10/09 14:05:35;;;;;;;8.82;7.18;;;;;;;;;;5137972;27;20023;-76
2022/10/09 14:08:20;;;;;;;8.15;7.05;;;;;;;;;;5137647;27;20147;-75
2022/10/09 14:11:06;;;;;;;9.45;6.78;;;;;;;;;;5136130;27;20023;-75
2022/10/09 14:13:52;;;;;;;9.15;6.65;;;;;;;;;;5136853;27;20023;-75
2022/10/09 14:16:37;;;;;;;10.20;7.20;;;;;;;;;;5137644;27;20102;-75
2022/10/09 14:19:26;;;;;;;13.25;7.78;;;;;;;;;;5136630;27;20031;-75
2022/10/09 14:22:13;;;;;;;8.05;6.47;;;;;;;;;;5136593;27;20055;-76
2022/10/09 14:24:59;;;;;;;10.38;6.60;;;;;;;;;;5136750;27;20106;-76
2022/10/09 14:27:44;;;;;;;8.35;6.28;;;;;;;;;;5136956;27;20451;-75
2022/10/09 14:30:30;;;;;;;10.85;7.28;;;;;;;;;;5122575;27;20066;-74
2022/10/09 14:33:16;;;;;;;11.32;7.20;;;;;;;;;;5136781;27;20034;-74
2022/10/09 14:36:08;;;;;;;7.85;6.80;;;;;;;;;;5136956;27;20019;-76
2022/10/09 14:38:54;;;;;;;11.80;6.88;;;;;;;;;;5136384;27;20034;-76
2022/10/09 14:41:40;;;;;;;10.98;7.07;;;;;;;;;;5137402;27;20023;-72
2022/10/09 14:44:26;;;;;;;9.85;7.25;;;;;;;;;;5136712;27;20016;-73
2022/10/09 14:47:12;;;;;;;8.23;6.72;;;;;;;;;;5137798;27;20025;-71
2022/10/09 14:49:57;;;;;;;9.40;8.02;;;;;;;;;;5136991;27;20083;-75
2022/10/09 14:52:43;;;;;;;15.80;8.27;;;;;;;;;;5138135;27;20042;-71
2022/10/09 14:55:29;;;;;;;12.23;7.47;;;;;;;;;;5136704;27;20043;-72
2022/10/09 14:58:15;;;;;;;11.63;7.32;;;;;;;;;;5122804;27;20419;-73
2022/10/09 15:01:01;;;;;;;10.73;7.10;;;;;;;;;;5122152;27;20046;-72
2022/10/09 15:03:47;;;;;;;8.55;7.57;;;;;;;;;;5136323;27;20446;-75
2022/10/09 15:06:35;;;;;;;10.88;7.45;;;;;;;;;;5122416;27;20073;-76
2022/10/09 15:09:21;;;;;;;11.30;7.68;;;;;;;;;;5122180;27;20431;-74
2022/10/09 15:12:06;;;;;;;10.07;7.38;;;;;;;;;;5135743;27;20144;-74
2022/10/09 15:14:52;;;;;;;9.95;7.43;;;;;;;;;;5135990;27;20076;-75
2022/10/09 15:17:38;;;;;;;12.60;8.40;;;;;;;;;;5135781;27;20023;-73
2022/10/09 15:20:24;;;;;;;14.32;8.35;;;;;;;;;;5135200;27;20033;-75
2022/10/09 15:23:10;;;;;;;11.35;8.10;;;;;;;;;;5134913;27;20076;-74
2022/10/09 15:25:56;;;;;;;11.15;7.35;;;;;;;;;;5135876;27;20042;-74
2022/10/09 15:28:42;;;;;;;10.13;7.07;;;;;;;;;;5136187;27;20023;-75
2022/10/09 15:31:35;;;;;;;10.88;7.78;;;;;;;;;;5135071;27;20038;-74
2022/10/09 15:34:20;;;;;;;10.18;7.38;;;;;;;;;;5135465;27;20105;-73
2022/10/09 15:37:06;;;;;;;9.70;7.18;;;;;;;;;;5106942;27;20011;-75
2022/10/09 15:39:51;;;;;;;11.73;7.63;;;;;;;;;;5135397;27;20023;-74
2022/10/09 15:42:40;;;;;;;13.70;7.85;;;;;;;;;;5136567;27;20015;-74
2022/10/09 15:45:25;;;;;;;10.25;7.50;;;;;;;;;;5135520;27;20019;-74
2022/10/09 15:48:18;;;;;;;17.77;8.13;;;;;;;;;;5135753;27;20016;-74
2022/10/09 15:51:05;;;;;;;18.55;8.07;;;;;;;;;;5134898;27;20019;-74
2022/10/09 15:53:51;;;;;;;15.32;8.18;;;;;;;;;;5134667;27;20023;-75
2022/10/09 15:56:37;;;;;;;14.82;7.80;;;;;;;;;;5120388;27;20011;-74
2022/10/09 15:59:22;;;;;;;10.30;7.93;;;;;;;;;;5135375;27;20012;-73
2022/10/09 16:02:08;;;;;;;15.65;8.18;;;;;;;;;;5134617;27;20015;-74
2022/10/09 16:04:54;;;;;;;15.10;9.02;;;;;;;;;;5105588;27;20046;-75
2022/10/09 16:07:40;;;;;;;15.15;9.38;;;;;;;;;;5135190;27;20027;-75
2022/10/09 16:10:25;;;;;;;18.10;8.70;;;;;;;;;;5135283;27;20078;-75
2022/10/09 16:13:11;;;;;;;19.42;10.05;;;;;;;;;;5134704;27;20366;-73
2022/10/09 16:15:57;;;;;;;19.45;10.10;;;;;;;;;;5120280;27;20468;-74
2022/10/09 16:18:43;;;;;;;19.67;9.98;;;;;;;;;;5133767;27;20027;-73
2022/10/09 16:21:29;;;;;;;18.48;9.57;;;;;;;;;;5134674;27;20084;-74
2022/10/09 16:24:15;;;;;;;15.98;10.23;;;;;;;;;;5134525;27;20019;-74
2022/10/09 16:27:01;;;;;;;14.82;10.88;;;;;;;;;;5119694;27;20015;-74
2022/10/09 16:29:47;;;;;;;23.90;10.88;;;;;;;;;;5135130;27;20046;-73